createdAt,value
2018-12-07T00:00:17.356Z,69.6
2018-12-07T00:05:22.243Z,59.9
2018-12-07T00:10:17.680Z,61.5
2018-12-07T00:15:17.570Z,100.2
2018-12-07T00:20:16.703Z,73.2
2018-12-07T00:25:16.697Z,45.8
2018-12-07T00:30:17.855Z,74.2
2018-12-07T00:35:16.828Z,56.3
2018-12-07T00:40:17.063Z,54.7
2018-12-07T00:45:17.183Z,44.1
2018-12-07T00:50:17.089Z,52.7
2018-12-07T00:55:16.975Z,39.7
2018-12-07T01:00:17.129Z,45.6
2018-12-07T01:05:17.281Z,38.6
2018-12-07T01:10:17.427Z,38.1
2018-12-07T01:15:17.460Z,32.6
2018-12-07T01:20:17.936Z,26.4
2018-12-07T01:25:16.940Z,30.2
2018-12-07T01:30:17.029Z,32.5
2018-12-07T01:35:16.951Z,28.7
2018-12-07T01:40:17.159Z,25.8
2018-12-07T01:45:16.955Z,18.8
2018-12-07T01:50:17.227Z,26.8
2018-12-07T01:55:17.432Z,25.1
2018-12-07T02:00:22.239Z,21.5
2018-12-07T02:05:17.175Z,21.2
2018-12-07T02:10:17.208Z,6.1
2018-12-07T02:15:17.015Z,13.3
2018-12-07T02:20:17.243Z,9.9
2018-12-07T02:25:17.280Z,21.2
2018-12-07T02:30:17.083Z,14.3
2018-12-07T02:35:17.106Z,18.9
2018-12-07T02:40:17.248Z,13
2018-12-07T02:45:17.085Z,9.4
2018-12-07T02:50:17.236Z,6
2018-12-07T02:55:17.160Z,10.7
2018-12-07T03:00:17.015Z,11.1
2018-12-07T03:05:16.927Z,7.7
2018-12-07T03:10:17.283Z,13.4
2018-12-07T03:15:17.188Z,11.7
2018-12-07T03:20:17.575Z,16.4
2018-12-07T03:25:17.544Z,9.1
2018-12-07T03:30:17.603Z,10.6
2018-12-07T03:35:17.732Z,12.8
2018-12-07T03:40:16.876Z,10
2018-12-07T03:45:16.926Z,12.1
2018-12-07T03:50:16.795Z,9.6
2018-12-07T03:55:16.723Z,17.4
2018-12-07T04:00:17.651Z,9.6
2018-12-07T04:05:17.550Z,10.6
2018-12-07T04:10:17.580Z,10
2018-12-07T04:15:17.884Z,11.1
2018-12-07T04:20:16.884Z,10.5
2018-12-07T04:25:16.807Z,10.6
2018-12-07T04:30:16.757Z,11.7
2018-12-07T04:35:16.518Z,7.6
2018-12-07T04:40:16.686Z,8.8
2018-12-07T04:45:17.867Z,12.6
2018-12-07T04:50:16.677Z,9.7
2018-12-07T04:55:17.709Z,9.9
2018-12-07T05:00:17.591Z,8.4
2018-12-07T05:05:17.687Z,3
2018-12-07T05:10:16.896Z,9.3
2018-12-07T05:15:17.080Z,7.5
2018-12-07T05:20:17.081Z,6.1
2018-12-07T05:25:17.052Z,11.1
2018-12-07T05:30:16.911Z,8.3
2018-12-07T05:35:16.716Z,8.8
2018-12-07T05:40:17.025Z,4.5
2018-12-07T05:45:16.988Z,9.5
2018-12-07T05:50:16.797Z,10.6
2018-12-07T05:55:16.756Z,8.2
2018-12-07T06:00:16.740Z,7.2
2018-12-07T06:05:17.677Z,6.5
2018-12-07T06:10:16.984Z,6.5
2018-12-07T06:15:17.148Z,7.9
2018-12-07T06:20:17.340Z,7.7
2018-12-07T06:25:17.908Z,9.4
2018-12-07T06:30:16.950Z,8.9
2018-12-07T06:35:17.211Z,6.4
2018-12-07T06:40:17.260Z,10
2018-12-07T06:45:17.391Z,4.7
2018-12-07T06:50:17.315Z,3.6
2018-12-07T06:55:17.140Z,12.5
2018-12-07T07:00:17.056Z,13.4
2018-12-07T07:05:17.075Z,11.3
2018-12-07T07:10:17.049Z,15.8
2018-12-07T07:15:16.876Z,24.1
2018-12-07T07:20:17.250Z,18.5
2018-12-07T07:25:17.067Z,17.9
2018-12-07T07:30:17.067Z,26.1
2018-12-07T07:35:17.068Z,25.4
2018-12-07T07:40:17.200Z,29.5
2018-12-07T07:45:17.140Z,12.7
2018-12-07T07:50:17.240Z,30.5
2018-12-07T07:55:17.067Z,28
2018-12-07T08:00:17.012Z,29.8
2018-12-07T08:05:17.186Z,27.8
2018-12-07T08:10:17.263Z,29
2018-12-07T08:15:17.415Z,27.6
2018-12-07T08:20:17.448Z,19.1
2018-12-07T08:25:17.373Z,25.5
2018-12-07T08:30:17.529Z,14.1
2018-12-07T08:35:17.693Z,19.7
2018-12-07T08:40:16.989Z,20
2018-12-07T08:45:16.999Z,23
2018-12-07T08:50:16.983Z,19.4
2018-12-07T08:55:16.959Z,7.3
2018-12-07T09:00:17.128Z,20.5
2018-12-07T09:05:17.283Z,22.2
2018-12-07T09:10:17.493Z,18.2
2018-12-07T09:15:17.506Z,16.1
2018-12-07T09:20:17.635Z,20.3
2018-12-07T09:25:17.779Z,10.5
2018-12-07T09:30:16.659Z,18.7
2018-12-07T09:35:17.585Z,21.5
2018-12-07T09:40:16.640Z,16.6
2018-12-07T09:45:17.450Z,13.7
2018-12-07T09:50:17.593Z,12.3
2018-12-07T09:55:17.656Z,14.1
2018-12-07T10:00:17.606Z,12.2
2018-12-07T10:05:17.535Z,11.8
2018-12-07T10:10:17.867Z,7.4
2018-12-07T10:15:17.023Z,9.5
2018-12-07T10:20:17.204Z,8.7
2018-12-07T10:25:17.272Z,5.7
2018-12-07T10:30:17.393Z,7
2018-12-07T10:35:17.311Z,5.1
2018-12-07T10:40:17.479Z,5.8
2018-12-07T10:45:17.636Z,2.6
2018-12-07T10:50:17.712Z,4.5
2018-12-07T10:55:17.642Z,3.9
2018-12-07T11:00:22.682Z,4.2
2018-12-07T11:05:16.930Z,3.6
2018-12-07T11:10:17.286Z,3.8
2018-12-07T11:15:17.459Z,3.5
2018-12-07T11:20:17.582Z,3.1
2018-12-07T11:25:17.511Z,1
2018-12-07T11:30:17.583Z,3.5
2018-12-07T11:35:17.449Z,3
2018-12-07T11:40:17.899Z,1.3
2018-12-07T11:45:16.896Z,3.2
2018-12-07T11:50:16.737Z,3.3
2018-12-07T11:55:17.856Z,3.2
2018-12-07T12:00:16.857Z,2.8
2018-12-07T12:05:17.104Z,2.5
2018-12-07T12:10:22.235Z,2.6
2018-12-07T12:15:17.230Z,1.5
2018-12-07T12:20:17.581Z,2.6
2018-12-07T12:25:17.804Z,1.6
2018-12-07T12:30:17.874Z,2.2
2018-12-07T12:35:16.903Z,0.5
2018-12-07T12:40:17.278Z,2.1
2018-12-07T12:45:17.177Z,1.4
2018-12-07T12:50:17.136Z,2.2
2018-12-07T12:55:17.192Z,1.2
2018-12-07T13:00:17.225Z,2.1
2018-12-07T13:05:17.119Z,0.8
2018-12-07T13:10:17.319Z,3.2
2018-12-07T13:15:17.456Z,4.7
2018-12-07T13:20:17.626Z,4.8
2018-12-07T13:25:17.777Z,2
2018-12-07T13:30:16.958Z,4.3
2018-12-07T13:35:17.163Z,5.7
2018-12-07T13:40:17.607Z,6
2018-12-07T13:45:16.812Z,5.5
2018-12-07T13:50:16.879Z,3.8
2018-12-07T13:55:16.931Z,6.3
2018-12-07T14:00:17.311Z,5
2018-12-07T14:05:22.412Z,6.9
2018-12-07T14:10:17.839Z,7.2
2018-12-07T14:15:17.363Z,7.2
2018-12-07T14:20:17.543Z,7.5
2018-12-07T14:25:17.673Z,7.5
2018-12-07T14:30:17.074Z,7.4
2018-12-07T14:35:17.388Z,7.3
2018-12-07T14:40:17.056Z,8.1
2018-12-07T14:45:17.327Z,8.8
2018-12-07T14:50:17.512Z,9.1
2018-12-07T14:55:17.083Z,8.8
2018-12-07T15:00:17.248Z,6.5
2018-12-07T15:05:17.564Z,9.3
2018-12-07T15:10:17.070Z,5.7
2018-12-07T15:15:17.497Z,9.6
2018-12-07T15:20:16.862Z,9.7
2018-12-07T15:25:16.634Z,7
2018-12-07T15:30:17.635Z,10.3
2018-12-07T15:35:17.850Z,8
2018-12-07T15:40:17.165Z,11.1
2018-12-07T15:45:17.382Z,10.9
2018-12-07T15:50:24.837Z,9.7
2018-12-07T15:55:17.783Z,11.8
2018-12-07T16:00:16.961Z,8
2018-12-07T16:05:16.824Z,13.6
2018-12-07T16:10:17.387Z,13.3
2018-12-07T16:15:17.435Z,16.4
2018-12-07T16:20:17.631Z,17.6
2018-12-07T16:25:17.191Z,17.1
2018-12-07T16:30:17.352Z,22.4
2018-12-07T16:35:17.742Z,21.1
2018-12-07T16:40:17.027Z,27.2
2018-12-07T16:45:17.391Z,19.8
2018-12-07T16:50:17.534Z,32.5
2018-12-07T16:55:16.966Z,25.4
2018-12-07T17:00:17.166Z,34.2
2018-12-07T17:05:17.392Z,28.9
2018-12-07T17:10:16.854Z,35.2
2018-12-07T17:15:16.887Z,30.9
2018-12-07T17:20:17.505Z,32.6
2018-12-07T17:25:17.821Z,32.4
2018-12-07T17:30:17.200Z,27.6
2018-12-07T17:35:17.196Z,21.6
2018-12-07T17:40:17.248Z,23.4
2018-12-07T17:45:17.816Z,25.3
2018-12-07T17:50:17.050Z,22.2
2018-12-07T17:55:17.363Z,22.7
2018-12-07T18:00:17.646Z,22
2018-12-07T18:05:16.977Z,21.1
2018-12-07T18:10:17.336Z,15.8
2018-12-07T18:15:18.000Z,19.7
2018-12-07T18:20:17.665Z,13
2018-12-07T18:25:16.898Z,18.5
2018-12-07T18:30:17.491Z,17.8
2018-12-07T18:35:17.819Z,14.4
2018-12-07T18:40:17.254Z,15.4
2018-12-07T18:45:17.595Z,15.9
2018-12-07T18:50:17.818Z,12.4
2018-12-07T18:55:17.459Z,13.9
2018-12-07T19:00:17.612Z,7.3
2018-12-07T19:05:17.019Z,13.9
2018-12-07T19:10:17.356Z,13.9
2018-12-07T19:15:17.496Z,12.2
2018-12-07T19:20:17.054Z,13.2
2018-12-07T19:25:17.414Z,14.3
2018-12-07T19:30:17.628Z,14.9
2018-12-07T19:35:17.284Z,13.5
2018-12-07T19:40:16.551Z,13.9
2018-12-07T19:45:17.022Z,5.3
2018-12-07T19:50:17.404Z,12.8
2018-12-07T19:55:18.171Z,12.2
2018-12-07T20:00:17.729Z,11.6
2018-12-07T20:05:16.701Z,10.7
2018-12-07T20:10:17.410Z,5.7
2018-12-07T20:15:16.962Z,10.9
2018-12-07T20:20:17.631Z,4
2018-12-07T20:25:16.878Z,7.4
2018-12-07T20:30:17.317Z,5.5
2018-12-07T20:35:17.612Z,5.4
2018-12-07T20:40:17.052Z,0.4
2018-12-07T20:45:17.141Z,7
2018-12-07T20:50:17.338Z,10.8
2018-12-07T20:55:17.684Z,12.4
2018-12-07T21:00:17.260Z,9.7
2018-12-07T21:05:17.671Z,7.2
2018-12-07T21:10:17.435Z,8.4
2018-12-07T21:15:17.822Z,8.1
2018-12-07T21:20:17.220Z,0.9
2018-12-07T21:25:17.717Z,7.5
2018-12-07T21:30:17.243Z,11.8
2018-12-07T21:35:17.549Z,10.9
2018-12-07T21:40:17.101Z,7.9
2018-12-07T21:45:17.768Z,9.6
2018-12-07T21:50:17.203Z,9
2018-12-07T21:55:18.087Z,10.1
2018-12-07T22:00:17.552Z,12.2
2018-12-07T22:05:16.901Z,10.2
2018-12-07T22:10:17.476Z,5
2018-12-07T22:15:17.113Z,21.5
2018-12-07T22:20:17.824Z,16.8
2018-12-07T22:25:16.973Z,3.1
2018-12-07T22:30:17.328Z,21.3
2018-12-07T22:35:17.876Z,0.5
2018-12-07T22:40:17.139Z,6.7
2018-12-07T22:45:17.686Z,0.4
2018-12-07T22:50:17.015Z,1.2
2018-12-07T22:55:17.163Z,0.4
2018-12-07T23:00:17.382Z,0.8
2018-12-07T23:05:17.330Z,32.3
2018-12-07T23:10:17.550Z,3.4
2018-12-07T23:15:17.551Z,9.1
2018-12-07T23:20:17.712Z,3.1
2018-12-07T23:25:17.680Z,6.9
2018-12-07T23:30:17.866Z,29.5
2018-12-07T23:35:17.080Z,13.3
2018-12-07T23:40:17.164Z,16.9
2018-12-07T23:45:17.087Z,13.9
2018-12-07T23:50:16.942Z,1.3
2018-12-07T23:55:17.067Z,5.7
